sensor_id;sensor_type;location;lat;lon;timestamp;P1;durP1;ratioP1;P2;durP2;ratioP2
4106;SDS011;21906;50.812;7.132;2024-02-26T00:02:02;2.23;;;2.03;;
4106;SDS011;21906;50.812;7.132;2024-02-26T00:04:28;2.10;;;2.00;;
4106;SDS011;21906;50.812;7.132;2024-02-26T00:06:54;1.83;;;1.70;;
4106;SDS011;21906;50.812;7.132;2024-02-26T00:09:21;1.73;;;1.63;;
4106;SDS011;21906;50.812;7.132;2024-02-26T00:11:46;2.13;;;1.90;;
4106;SDS011;21906;50.812;7.132;2024-02-26T00:14:12;2.20;;;2.00;;
4106;SDS011;21906;50.812;7.132;2024-02-26T00:16:42;2.00;;;1.80;;
4106;SDS011;21906;50.812;7.132;2024-02-26T00:19:07;1.60;;;1.50;;
4106;SDS011;21906;50.812;7.132;2024-02-26T00:21:33;1.70;;;1.60;;
4106;SDS011;21906;50.812;7.132;2024-02-26T00:23:59;2.03;;;1.43;;
4106;SDS011;21906;50.812;7.132;2024-02-26T00:26:24;2.40;;;1.43;;
4106;SDS011;21906;50.812;7.132;2024-02-26T00:28:50;1.50;;;1.40;;
4106;SDS011;21906;50.812;7.132;2024-02-26T00:31:16;1.70;;;1.60;;
4106;SDS011;21906;50.812;7.132;2024-02-26T00:33:42;2.50;;;1.50;;
4106;SDS011;21906;50.812;7.132;2024-02-26T00:36:08;1.70;;;1.60;;
4106;SDS011;21906;50.812;7.132;2024-02-26T00:38:34;1.47;;;1.37;;
4106;SDS011;21906;50.812;7.132;2024-02-26T00:41:01;1.60;;;1.50;;
4106;SDS011;21906;50.812;7.132;2024-02-26T00:43:26;1.60;;;1.50;;
4106;SDS011;21906;50.812;7.132;2024-02-26T00:45:52;1.50;;;1.40;;
4106;SDS011;21906;50.812;7.132;2024-02-26T00:48:18;1.60;;;1.50;;
4106;SDS011;21906;50.812;7.132;2024-02-26T00:50:43;1.60;;;1.50;;
4106;SDS011;21906;50.812;7.132;2024-02-26T00:53:09;1.63;;;1.53;;
4106;SDS011;21906;50.812;7.132;2024-02-26T00:55:35;1.40;;;1.30;;
4106;SDS011;21906;50.812;7.132;2024-02-26T00:58:00;1.50;;;1.40;;
4106;SDS011;21906;50.812;7.132;2024-02-26T01:00:26;1.40;;;1.30;;
4106;SDS011;21906;50.812;7.132;2024-02-26T01:02:51;1.73;;;1.30;;
4106;SDS011;21906;50.812;7.132;2024-02-26T01:05:17;1.53;;;1.43;;
4106;SDS011;21906;50.812;7.132;2024-02-26T01:07:43;2.67;;;1.23;;
4106;SDS011;21906;50.812;7.132;2024-02-26T01:10:09;2.57;;;1.30;;
4106;SDS011;21906;50.812;7.132;2024-02-26T01:12:35;1.40;;;1.30;;
4106;SDS011;21906;50.812;7.132;2024-02-26T01:15:02;1.40;;;1.30;;
4106;SDS011;21906;50.812;7.132;2024-02-26T01:17:28;1.10;;;1.00;;
4106;SDS011;21906;50.812;7.132;2024-02-26T01:19:54;1.20;;;1.10;;
4106;SDS011;21906;50.812;7.132;2024-02-26T01:22:20;1.40;;;1.20;;
4106;SDS011;21906;50.812;7.132;2024-02-26T01:24:45;1.50;;;1.40;;
4106;SDS011;21906;50.812;7.132;2024-02-26T01:27:11;1.50;;;1.23;;
4106;SDS011;21906;50.812;7.132;2024-02-26T01:29:39;1.50;;;1.30;;
4106;SDS011;21906;50.812;7.132;2024-02-26T01:32:05;1.40;;;1.30;;
4106;SDS011;21906;50.812;7.132;2024-02-26T01:34:31;1.87;;;1.23;;
4106;SDS011;21906;50.812;7.132;2024-02-26T01:36:56;1.50;;;1.40;;
4106;SDS011;21906;50.812;7.132;2024-02-26T01:39:22;1.40;;;1.30;;
4106;SDS011;21906;50.812;7.132;2024-02-26T01:41:48;1.77;;;1.57;;
4106;SDS011;21906;50.812;7.132;2024-02-26T01:44:13;1.60;;;1.30;;
4106;SDS011;21906;50.812;7.132;2024-02-26T01:46:39;3.00;;;1.50;;
4106;SDS011;21906;50.812;7.132;2024-02-26T01:49:05;1.67;;;1.20;;
4106;SDS011;21906;50.812;7.132;2024-02-26T01:51:33;1.57;;;1.47;;
4106;SDS011;21906;50.812;7.132;2024-02-26T01:54:01;3.93;;;1.50;;
4106;SDS011;21906;50.812;7.132;2024-02-26T01:56:28;1.30;;;1.20;;
4106;SDS011;21906;50.812;7.132;2024-02-26T01:58:57;2.80;;;1.23;;
4106;SDS011;21906;50.812;7.132;2024-02-26T02:01:27;1.57;;;1.47;;
4106;SDS011;21906;50.812;7.132;2024-02-26T02:03:55;1.60;;;1.50;;
4106;SDS011;21906;50.812;7.132;2024-02-26T02:06:23;1.53;;;1.43;;
4106;SDS011;21906;50.812;7.132;2024-02-26T02:08:48;4.00;;;1.50;;
4106;SDS011;21906;50.812;7.132;2024-02-26T02:11:14;1.60;;;1.50;;
4106;SDS011;21906;50.812;7.132;2024-02-26T02:13:40;1.23;;;1.13;;
4106;SDS011;21906;50.812;7.132;2024-02-26T02:16:06;3.83;;;1.20;;
4106;SDS011;21906;50.812;7.132;2024-02-26T02:18:32;1.97;;;1.40;;
4106;SDS011;21906;50.812;7.132;2024-02-26T02:21:02;2.10;;;1.27;;
4106;SDS011;21906;50.812;7.132;2024-02-26T02:23:28;1.50;;;1.40;;
4106;SDS011;21906;50.812;7.132;2024-02-26T02:25:53;1.50;;;1.40;;
4106;SDS011;21906;50.812;7.132;2024-02-26T02:28:21;1.37;;;1.17;;
4106;SDS011;21906;50.812;7.132;2024-02-26T02:30:47;1.73;;;1.30;;
4106;SDS011;21906;50.812;7.132;2024-02-26T02:33:13;1.30;;;1.20;;
4106;SDS011;21906;50.812;7.132;2024-02-26T02:35:40;2.70;;;1.23;;
4106;SDS011;21906;50.812;7.132;2024-02-26T02:38:06;1.50;;;1.40;;
4106;SDS011;21906;50.812;7.132;2024-02-26T02:40:32;1.30;;;1.20;;
4106;SDS011;21906;50.812;7.132;2024-02-26T02:42:57;1.40;;;1.30;;
4106;SDS011;21906;50.812;7.132;2024-02-26T02:45:23;1.30;;;1.20;;
4106;SDS011;21906;50.812;7.132;2024-02-26T02:47:49;2.03;;;1.30;;
4106;SDS011;21906;50.812;7.132;2024-02-26T02:50:15;2.13;;;1.60;;
4106;SDS011;21906;50.812;7.132;2024-02-26T02:52:41;1.53;;;1.40;;
4106;SDS011;21906;50.812;7.132;2024-02-26T02:55:06;2.03;;;1.43;;
4106;SDS011;21906;50.812;7.132;2024-02-26T02:57:32;1.30;;;1.20;;
4106;SDS011;21906;50.812;7.132;2024-02-26T02:59:58;3.07;;;1.53;;
4106;SDS011;21906;50.812;7.132;2024-02-26T03:02:24;1.40;;;1.30;;
4106;SDS011;21906;50.812;7.132;2024-02-26T03:04:52;1.90;;;1.30;;
4106;SDS011;21906;50.812;7.132;2024-02-26T03:07:18;3.70;;;1.37;;
4106;SDS011;21906;50.812;7.132;2024-02-26T03:09:43;1.60;;;1.50;;
4106;SDS011;21906;50.812;7.132;2024-02-26T03:12:09;1.40;;;1.30;;
4106;SDS011;21906;50.812;7.132;2024-02-26T03:14:35;1.77;;;1.50;;
4106;SDS011;21906;50.812;7.132;2024-02-26T03:17:01;1.57;;;1.47;;
4106;SDS011;21906;50.812;7.132;2024-02-26T03:19:26;1.57;;;1.47;;
4106;SDS011;21906;50.812;7.132;2024-02-26T03:21:52;1.40;;;1.30;;
4106;SDS011;21906;50.812;7.132;2024-02-26T03:24:17;1.40;;;1.30;;
4106;SDS011;21906;50.812;7.132;2024-02-26T03:26:43;1.43;;;1.33;;
4106;SDS011;21906;50.812;7.132;2024-02-26T03:29:09;1.37;;;1.27;;
4106;SDS011;21906;50.812;7.132;2024-02-26T03:31:35;1.43;;;1.33;;
4106;SDS011;21906;50.812;7.132;2024-02-26T03:34:01;2.37;;;1.90;;
4106;SDS011;21906;50.812;7.132;2024-02-26T03:36:26;1.70;;;1.60;;
4106;SDS011;21906;50.812;7.132;2024-02-26T03:38:52;1.40;;;1.30;;
4106;SDS011;21906;50.812;7.132;2024-02-26T03:41:18;2.27;;;1.50;;
4106;SDS011;21906;50.812;7.132;2024-02-26T03:43:43;2.27;;;1.73;;
4106;SDS011;21906;50.812;7.132;2024-02-26T03:46:10;1.50;;;1.40;;
4106;SDS011;21906;50.812;7.132;2024-02-26T03:48:37;1.60;;;1.40;;
4106;SDS011;21906;50.812;7.132;2024-02-26T03:51:02;1.40;;;1.30;;
4106;SDS011;21906;50.812;7.132;2024-02-26T03:53:28;1.20;;;1.10;;
4106;SDS011;21906;50.812;7.132;2024-02-26T03:55:54;1.80;;;1.30;;
4106;SDS011;21906;50.812;7.132;2024-02-26T03:58:20;2.17;;;1.40;;
4106;SDS011;21906;50.812;7.132;2024-02-26T04:00:46;1.47;;;1.37;;
4106;SDS011;21906;50.812;7.132;2024-02-26T04:03:15;1.57;;;1.43;;
4106;SDS011;21906;50.812;7.132;2024-02-26T04:05:41;1.60;;;1.50;;
4106;SDS011;21906;50.812;7.132;2024-02-26T04:08:06;1.83;;;1.40;;
4106;SDS011;21906;50.812;7.132;2024-02-26T04:10:33;1.47;;;1.37;;
4106;SDS011;21906;50.812;7.132;2024-02-26T04:13:04;1.40;;;1.30;;
4106;SDS011;21906;50.812;7.132;2024-02-26T04:15:31;1.50;;;1.40;;
4106;SDS011;21906;50.812;7.132;2024-02-26T04:17:57;1.30;;;1.20;;
4106;SDS011;21906;50.812;7.132;2024-02-26T04:20:22;1.93;;;1.20;;
4106;SDS011;21906;50.812;7.132;2024-02-26T04:22:48;1.50;;;1.40;;
4106;SDS011;21906;50.812;7.132;2024-02-26T04:25:14;1.60;;;1.50;;
4106;SDS011;21906;50.812;7.132;2024-02-26T04:27:40;1.53;;;1.43;;
4106;SDS011;21906;50.812;7.132;2024-02-26T04:30:06;2.03;;;1.53;;
4106;SDS011;21906;50.812;7.132;2024-02-26T04:32:32;1.83;;;1.23;;
4106;SDS011;21906;50.812;7.132;2024-02-26T04:34:59;1.60;;;1.40;;
4106;SDS011;21906;50.812;7.132;2024-02-26T04:37:25;1.80;;;1.47;;
4106;SDS011;21906;50.812;7.132;2024-02-26T04:39:59;3.53;;;1.50;;
4106;SDS011;21906;50.812;7.132;2024-02-26T04:42:25;1.60;;;1.50;;
4106;SDS011;21906;50.812;7.132;2024-02-26T04:44:51;2.30;;;1.53;;
4106;SDS011;21906;50.812;7.132;2024-02-26T04:47:16;1.80;;;1.70;;
4106;SDS011;21906;50.812;7.132;2024-02-26T04:49:42;1.83;;;1.50;;
4106;SDS011;21906;50.812;7.132;2024-02-26T04:52:08;1.50;;;1.40;;
4106;SDS011;21906;50.812;7.132;2024-02-26T04:54:36;1.83;;;1.43;;
4106;SDS011;21906;50.812;7.132;2024-02-26T04:57:02;1.73;;;1.63;;
4106;SDS011;21906;50.812;7.132;2024-02-26T04:59:27;3.47;;;1.47;;
4106;SDS011;21906;50.812;7.132;2024-02-26T05:01:53;2.07;;;1.60;;
4106;SDS011;21906;50.812;7.132;2024-02-26T05:04:19;1.50;;;1.40;;
4106;SDS011;21906;50.812;7.132;2024-02-26T05:06:44;1.77;;;1.50;;
4106;SDS011;21906;50.812;7.132;2024-02-26T05:09:10;1.83;;;1.73;;
4106;SDS011;21906;50.812;7.132;2024-02-26T05:11:36;1.60;;;1.50;;
4106;SDS011;21906;50.812;7.132;2024-02-26T05:14:02;1.53;;;1.43;;
4106;SDS011;21906;50.812;7.132;2024-02-26T05:16:28;2.33;;;1.70;;
4106;SDS011;21906;50.812;7.132;2024-02-26T05:18:56;1.60;;;1.50;;
4106;SDS011;21906;50.812;7.132;2024-02-26T05:21:22;3.10;;;1.70;;
4106;SDS011;21906;50.812;7.132;2024-02-26T05:23:48;2.23;;;1.87;;
4106;SDS011;21906;50.812;7.132;2024-02-26T05:26:20;1.70;;;1.60;;
4106;SDS011;21906;50.812;7.132;2024-02-26T05:28:48;1.87;;;1.50;;
4106;SDS011;21906;50.812;7.132;2024-02-26T05:31:15;1.70;;;1.60;;
4106;SDS011;21906;50.812;7.132;2024-02-26T05:33:41;1.60;;;1.50;;
4106;SDS011;21906;50.812;7.132;2024-02-26T05:36:07;2.00;;;1.90;;
4106;SDS011;21906;50.812;7.132;2024-02-26T05:38:33;2.17;;;1.97;;
4106;SDS011;21906;50.812;7.132;2024-02-26T05:40:59;2.17;;;1.97;;
4106;SDS011;21906;50.812;7.132;2024-02-26T05:43:25;1.70;;;1.60;;
4106;SDS011;21906;50.812;7.132;2024-02-26T05:45:51;1.70;;;1.60;;
4106;SDS011;21906;50.812;7.132;2024-02-26T05:48:17;2.30;;;1.70;;
4106;SDS011;21906;50.812;7.132;2024-02-26T05:50:44;2.13;;;1.90;;
4106;SDS011;21906;50.812;7.132;2024-02-26T05:53:10;2.10;;;2.00;;
4106;SDS011;21906;50.812;7.132;2024-02-26T05:55:36;1.90;;;1.80;;
4106;SDS011;21906;50.812;7.132;2024-02-26T05:58:02;2.10;;;1.87;;
4106;SDS011;21906;50.812;7.132;2024-02-26T06:00:28;1.93;;;1.80;;
4106;SDS011;21906;50.812;7.132;2024-02-26T06:02:53;2.20;;;2.03;;
4106;SDS011;21906;50.812;7.132;2024-02-26T06:05:19;1.90;;;1.80;;
4106;SDS011;21906;50.812;7.132;2024-02-26T06:07:45;2.47;;;1.80;;
4106;SDS011;21906;50.812;7.132;2024-02-26T06:10:10;2.73;;;2.10;;
4106;SDS011;21906;50.812;7.132;2024-02-26T06:12:38;2.10;;;1.90;;
4106;SDS011;21906;50.812;7.132;2024-02-26T06:15:05;2.20;;;2.00;;
4106;SDS011;21906;50.812;7.132;2024-02-26T06:17:31;2.23;;;1.90;;
4106;SDS011;21906;50.812;7.132;2024-02-26T06:19:57;1.93;;;1.83;;
4106;SDS011;21906;50.812;7.132;2024-02-26T06:22:24;2.23;;;2.03;;
4106;SDS011;21906;50.812;7.132;2024-02-26T06:24:50;2.10;;;1.90;;
4106;SDS011;21906;50.812;7.132;2024-02-26T06:27:16;2.23;;;2.07;;
4106;SDS011;21906;50.812;7.132;2024-02-26T06:29:41;3.33;;;2.20;;
4106;SDS011;21906;50.812;7.132;2024-02-26T06:32:07;2.50;;;2.30;;
4106;SDS011;21906;50.812;7.132;2024-02-26T06:34:32;2.30;;;2.10;;
4106;SDS011;21906;50.812;7.132;2024-02-26T06:36:58;2.20;;;2.00;;
4106;SDS011;21906;50.812;7.132;2024-02-26T06:39:24;2.40;;;2.20;;
4106;SDS011;21906;50.812;7.132;2024-02-26T06:41:49;2.73;;;2.50;;
4106;SDS011;21906;50.812;7.132;2024-02-26T06:44:15;2.60;;;2.40;;
4106;SDS011;21906;50.812;7.132;2024-02-26T06:46:41;2.60;;;2.40;;
4106;SDS011;21906;50.812;7.132;2024-02-26T06:49:06;4.20;;;2.50;;
4106;SDS011;21906;50.812;7.132;2024-02-26T06:51:32;2.70;;;2.50;;
4106;SDS011;21906;50.812;7.132;2024-02-26T06:53:58;2.20;;;1.97;;
4106;SDS011;21906;50.812;7.132;2024-02-26T06:56:24;2.60;;;2.40;;
4106;SDS011;21906;50.812;7.132;2024-02-26T06:58:49;3.10;;;2.90;;
4106;SDS011;21906;50.812;7.132;2024-02-26T07:01:15;3.70;;;2.53;;
4106;SDS011;21906;50.812;7.132;2024-02-26T07:03:41;2.73;;;2.50;;
4106;SDS011;21906;50.812;7.132;2024-02-26T07:06:06;2.80;;;2.60;;
4106;SDS011;21906;50.812;7.132;2024-02-26T07:08:33;4.10;;;2.70;;
4106;SDS011;21906;50.812;7.132;2024-02-26T07:10:59;2.70;;;2.50;;
4106;SDS011;21906;50.812;7.132;2024-02-26T07:13:24;3.07;;;2.83;;
4106;SDS011;21906;50.812;7.132;2024-02-26T07:15:50;2.60;;;2.40;;
4106;SDS011;21906;50.812;7.132;2024-02-26T07:18:16;2.80;;;2.50;;
4106;SDS011;21906;50.812;7.132;2024-02-26T07:20:42;3.07;;;2.87;;
4106;SDS011;21906;50.812;7.132;2024-02-26T07:23:08;2.70;;;2.50;;
4106;SDS011;21906;50.812;7.132;2024-02-26T07:25:34;3.10;;;2.90;;
4106;SDS011;21906;50.812;7.132;2024-02-26T07:28:00;3.13;;;2.90;;
4106;SDS011;21906;50.812;7.132;2024-02-26T07:30:25;2.97;;;2.77;;
4106;SDS011;21906;50.812;7.132;2024-02-26T07:32:51;2.67;;;2.47;;
4106;SDS011;21906;50.812;7.132;2024-02-26T07:35:16;3.07;;;2.40;;
4106;SDS011;21906;50.812;7.132;2024-02-26T07:37:42;2.67;;;2.47;;
4106;SDS011;21906;50.812;7.132;2024-02-26T07:40:08;2.63;;;2.43;;
4106;SDS011;21906;50.812;7.132;2024-02-26T07:42:34;2.87;;;2.60;;
4106;SDS011;21906;50.812;7.132;2024-02-26T07:45:00;4.83;;;2.47;;
4106;SDS011;21906;50.812;7.132;2024-02-26T07:47:27;3.17;;;2.30;;
4106;SDS011;21906;50.812;7.132;2024-02-26T07:49:52;3.37;;;3.07;;
4106;SDS011;21906;50.812;7.132;2024-02-26T07:52:18;2.70;;;2.50;;
4106;SDS011;21906;50.812;7.132;2024-02-26T07:54:44;2.77;;;2.53;;
4106;SDS011;21906;50.812;7.132;2024-02-26T07:57:09;2.57;;;2.37;;
4106;SDS011;21906;50.812;7.132;2024-02-26T07:59:35;3.10;;;2.90;;
4106;SDS011;21906;50.812;7.132;2024-02-26T08:02:01;2.60;;;2.40;;
4106;SDS011;21906;50.812;7.132;2024-02-26T08:04:28;4.20;;;2.43;;
4106;SDS011;21906;50.812;7.132;2024-02-26T08:06:54;2.80;;;2.60;;
4106;SDS011;21906;50.812;7.132;2024-02-26T08:09:20;2.90;;;2.70;;
4106;SDS011;21906;50.812;7.132;2024-02-26T08:11:45;2.60;;;2.40;;
4106;SDS011;21906;50.812;7.132;2024-02-26T08:14:11;2.67;;;2.47;;
4106;SDS011;21906;50.812;7.132;2024-02-26T08:16:37;2.60;;;2.40;;
4106;SDS011;21906;50.812;7.132;2024-02-26T08:19:02;2.77;;;2.27;;
4106;SDS011;21906;50.812;7.132;2024-02-26T08:21:28;2.27;;;2.17;;
4106;SDS011;21906;50.812;7.132;2024-02-26T08:23:54;2.53;;;2.33;;
4106;SDS011;21906;50.812;7.132;2024-02-26T08:26:20;2.30;;;2.10;;
4106;SDS011;21906;50.812;7.132;2024-02-26T08:28:47;2.43;;;2.23;;
4106;SDS011;21906;50.812;7.132;2024-02-26T08:31:14;2.50;;;2.30;;
4106;SDS011;21906;50.812;7.132;2024-02-26T08:33:40;2.80;;;2.60;;
4106;SDS011;21906;50.812;7.132;2024-02-26T08:36:05;2.73;;;2.53;;
4106;SDS011;21906;50.812;7.132;2024-02-26T08:38:31;3.10;;;2.37;;
4106;SDS011;21906;50.812;7.132;2024-02-26T08:40:59;2.67;;;2.30;;
4106;SDS011;21906;50.812;7.132;2024-02-26T08:43:26;3.50;;;2.40;;
4106;SDS011;21906;50.812;7.132;2024-02-26T08:45:52;3.00;;;2.70;;
4106;SDS011;21906;50.812;7.132;2024-02-26T08:48:17;2.40;;;2.20;;
4106;SDS011;21906;50.812;7.132;2024-02-26T08:50:43;2.83;;;2.63;;
4106;SDS011;21906;50.812;7.132;2024-02-26T08:53:09;3.20;;;2.67;;
4106;SDS011;21906;50.812;7.132;2024-02-26T08:55:34;2.70;;;2.50;;
4106;SDS011;21906;50.812;7.132;2024-02-26T08:58:00;2.87;;;2.60;;
4106;SDS011;21906;50.812;7.132;2024-02-26T09:00:26;2.83;;;2.63;;
4106;SDS011;21906;50.812;7.132;2024-02-26T09:02:53;2.70;;;2.50;;
4106;SDS011;21906;50.812;7.132;2024-02-26T09:05:19;4.60;;;3.00;;
4106;SDS011;21906;50.812;7.132;2024-02-26T09:07:44;3.00;;;2.80;;
4106;SDS011;21906;50.812;7.132;2024-02-26T09:10:11;2.77;;;2.57;;
4106;SDS011;21906;50.812;7.132;2024-02-26T09:12:37;2.90;;;2.70;;
4106;SDS011;21906;50.812;7.132;2024-02-26T09:15:06;3.27;;;2.60;;
4106;SDS011;21906;50.812;7.132;2024-02-26T09:17:32;2.97;;;2.67;;
4106;SDS011;21906;50.812;7.132;2024-02-26T09:19:58;2.70;;;2.50;;
4106;SDS011;21906;50.812;7.132;2024-02-26T09:22:24;2.83;;;2.50;;
4106;SDS011;21906;50.812;7.132;2024-02-26T09:24:50;3.70;;;2.80;;
4106;SDS011;21906;50.812;7.132;2024-02-26T09:27:17;2.87;;;2.67;;
4106;SDS011;21906;50.812;7.132;2024-02-26T09:29:43;3.30;;;3.00;;
4106;SDS011;21906;50.812;7.132;2024-02-26T09:32:08;3.57;;;3.37;;
4106;SDS011;21906;50.812;7.132;2024-02-26T09:34:34;2.90;;;2.60;;
4106;SDS011;21906;50.812;7.132;2024-02-26T09:37:00;3.77;;;2.80;;
4106;SDS011;21906;50.812;7.132;2024-02-26T09:39:26;3.33;;;3.03;;
4106;SDS011;21906;50.812;7.132;2024-02-26T09:41:53;3.27;;;2.97;;
4106;SDS011;21906;50.812;7.132;2024-02-26T09:44:19;4.23;;;3.83;;
4106;SDS011;21906;50.812;7.132;2024-02-26T09:46:46;3.97;;;3.60;;
4106;SDS011;21906;50.812;7.132;2024-02-26T09:49:15;3.57;;;3.27;;
4106;SDS011;21906;50.812;7.132;2024-02-26T09:51:42;3.23;;;3.00;;
4106;SDS011;21906;50.812;7.132;2024-02-26T09:54:09;4.37;;;3.40;;
4106;SDS011;21906;50.812;7.132;2024-02-26T09:56:36;3.30;;;3.00;;
4106;SDS011;21906;50.812;7.132;2024-02-26T09:59:04;2.80;;;2.60;;
4106;SDS011;21906;50.812;7.132;2024-02-26T10:01:35;3.20;;;3.00;;
4106;SDS011;21906;50.812;7.132;2024-02-26T10:04:04;4.60;;;3.20;;
4106;SDS011;21906;50.812;7.132;2024-02-26T10:06:30;2.93;;;2.73;;
4106;SDS011;21906;50.812;7.132;2024-02-26T10:08:56;3.57;;;3.27;;
4106;SDS011;21906;50.812;7.132;2024-02-26T10:11:24;3.47;;;3.23;;
4106;SDS011;21906;50.812;7.132;2024-02-26T10:13:50;3.20;;;3.00;;
4106;SDS011;21906;50.812;7.132;2024-02-26T10:16:16;3.20;;;3.00;;
4106;SDS011;21906;50.812;7.132;2024-02-26T10:18:48;3.43;;;3.23;;
4106;SDS011;21906;50.812;7.132;2024-02-26T10:21:18;3.10;;;2.90;;
4106;SDS011;21906;50.812;7.132;2024-02-26T10:23:45;3.60;;;3.30;;
4106;SDS011;21906;50.812;7.132;2024-02-26T10:26:12;3.43;;;3.20;;
4106;SDS011;21906;50.812;7.132;2024-02-26T10:28:39;3.07;;;2.87;;
4106;SDS011;21906;50.812;7.132;2024-02-26T10:31:05;3.70;;;2.77;;
4106;SDS011;21906;50.812;7.132;2024-02-26T10:33:35;3.03;;;2.83;;
4106;SDS011;21906;50.812;7.132;2024-02-26T10:36:02;3.20;;;2.90;;
4106;SDS011;21906;50.812;7.132;2024-02-26T10:38:29;2.80;;;2.60;;
4106;SDS011;21906;50.812;7.132;2024-02-26T10:40:55;3.27;;;3.00;;
4106;SDS011;21906;50.812;7.132;2024-02-26T10:43:21;3.30;;;2.97;;
4106;SDS011;21906;50.812;7.132;2024-02-26T10:45:46;4.37;;;3.00;;
4106;SDS011;21906;50.812;7.132;2024-02-26T10:48:15;2.70;;;2.50;;
4106;SDS011;21906;50.812;7.132;2024-02-26T10:50:42;2.77;;;2.57;;
4106;SDS011;21906;50.812;7.132;2024-02-26T10:53:16;3.07;;;2.80;;
4106;SDS011;21906;50.812;7.132;2024-02-26T10:55:44;3.13;;;2.93;;
4106;SDS011;21906;50.812;7.132;2024-02-26T10:58:17;3.83;;;3.30;;
4106;SDS011;21906;50.812;7.132;2024-02-26T11:00:44;3.80;;;2.93;;
4106;SDS011;21906;50.812;7.132;2024-02-26T11:03:12;3.40;;;3.13;;
4106;SDS011;21906;50.812;7.132;2024-02-26T11:05:41;3.20;;;3.00;;
4106;SDS011;21906;50.812;7.132;2024-02-26T11:08:09;3.60;;;3.30;;
4106;SDS011;21906;50.812;7.132;2024-02-26T11:10:36;3.50;;;3.20;;
4106;SDS011;21906;50.812;7.132;2024-02-26T11:13:03;3.50;;;2.80;;
4106;SDS011;21906;50.812;7.132;2024-02-26T11:15:31;2.77;;;2.57;;
4106;SDS011;21906;50.812;7.132;2024-02-26T11:17:58;3.23;;;3.03;;
4106;SDS011;21906;50.812;7.132;2024-02-26T11:20:28;3.50;;;3.20;;
4106;SDS011;21906;50.812;7.132;2024-02-26T11:22:57;3.17;;;2.83;;
4106;SDS011;21906;50.812;7.132;2024-02-26T11:25:23;5.00;;;3.17;;
4106;SDS011;21906;50.812;7.132;2024-02-26T11:27:54;2.90;;;2.70;;
4106;SDS011;21906;50.812;7.132;2024-02-26T11:30:24;3.20;;;2.90;;
4106;SDS011;21906;50.812;7.132;2024-02-26T11:32:51;3.40;;;3.10;;
4106;SDS011;21906;50.812;7.132;2024-02-26T11:35:18;3.30;;;3.10;;
4106;SDS011;21906;50.812;7.132;2024-02-26T11:37:51;3.47;;;3.17;;
4106;SDS011;21906;50.812;7.132;2024-02-26T11:40:22;3.43;;;3.13;;
4106;SDS011;21906;50.812;7.132;2024-02-26T11:42:50;4.33;;;3.00;;
4106;SDS011;21906;50.812;7.132;2024-02-26T11:50:41;3.63;;;3.33;;
4106;SDS011;21906;50.812;7.132;2024-02-26T11:58:59;3.83;;;3.53;;
4106;SDS011;21906;50.812;7.132;2024-02-26T12:07:01;3.53;;;3.23;;
4106;SDS011;21906;50.812;7.132;2024-02-26T12:09:33;4.10;;;3.53;;
4106;SDS011;21906;50.812;7.132;2024-02-26T12:12:04;4.10;;;3.80;;
4106;SDS011;21906;50.812;7.132;2024-02-26T12:14:35;4.10;;;3.80;;
4106;SDS011;21906;50.812;7.132;2024-02-26T12:17:19;5.17;;;3.80;;
4106;SDS011;21906;50.812;7.132;2024-02-26T12:19:45;4.47;;;3.90;;
4106;SDS011;21906;50.812;7.132;2024-02-26T12:22:14;5.70;;;3.90;;
4106;SDS011;21906;50.812;7.132;2024-02-26T12:24:41;6.40;;;4.27;;
4106;SDS011;21906;50.812;7.132;2024-02-26T12:27:08;3.50;;;3.20;;
4106;SDS011;21906;50.812;7.132;2024-02-26T12:29:33;3.80;;;3.50;;
4106;SDS011;21906;50.812;7.132;2024-02-26T12:31:59;4.20;;;3.80;;
4106;SDS011;21906;50.812;7.132;2024-02-26T12:34:26;3.63;;;3.33;;
4106;SDS011;21906;50.812;7.132;2024-02-26T12:36:53;4.20;;;3.90;;
4106;SDS011;21906;50.812;7.132;2024-02-26T12:39:19;3.00;;;2.80;;
4106;SDS011;21906;50.812;7.132;2024-02-26T12:41:46;3.90;;;3.60;;
4106;SDS011;21906;50.812;7.132;2024-02-26T12:44:17;3.97;;;3.67;;
4106;SDS011;21906;50.812;7.132;2024-02-26T12:46:43;4.50;;;3.27;;
4106;SDS011;21906;50.812;7.132;2024-02-26T12:49:10;4.07;;;3.30;;
4106;SDS011;21906;50.812;7.132;2024-02-26T12:51:40;3.93;;;3.30;;
4106;SDS011;21906;50.812;7.132;2024-02-26T12:54:06;3.37;;;3.17;;
4106;SDS011;21906;50.812;7.132;2024-02-26T12:56:33;4.30;;;3.87;;
4106;SDS011;21906;50.812;7.132;2024-02-26T12:58:59;4.10;;;3.80;;
4106;SDS011;21906;50.812;7.132;2024-02-26T13:01:25;5.13;;;3.33;;
4106;SDS011;21906;50.812;7.132;2024-02-26T13:03:52;3.83;;;3.53;;
4106;SDS011;21906;50.812;7.132;2024-02-26T13:06:19;4.17;;;3.87;;
4106;SDS011;21906;50.812;7.132;2024-02-26T13:08:46;4.23;;;3.83;;
4106;SDS011;21906;50.812;7.132;2024-02-26T13:11:12;4.10;;;3.80;;
4106;SDS011;21906;50.812;7.132;2024-02-26T13:13:39;3.77;;;3.47;;
4106;SDS011;21906;50.812;7.132;2024-02-26T13:16:10;4.20;;;3.70;;
4106;SDS011;21906;50.812;7.132;2024-02-26T13:18:40;3.73;;;3.43;;
4106;SDS011;21906;50.812;7.132;2024-02-26T13:21:10;3.93;;;3.73;;
4106;SDS011;21906;50.812;7.132;2024-02-26T13:23:40;3.37;;;3.07;;
4106;SDS011;21906;50.812;7.132;2024-02-26T13:26:07;3.43;;;3.20;;
4106;SDS011;21906;50.812;7.132;2024-02-26T13:28:33;3.60;;;3.30;;
4106;SDS011;21906;50.812;7.132;2024-02-26T13:31:00;3.50;;;3.20;;
4106;SDS011;21906;50.812;7.132;2024-02-26T13:33:27;4.60;;;3.40;;
4106;SDS011;21906;50.812;7.132;2024-02-26T13:35:56;4.33;;;3.90;;
4106;SDS011;21906;50.812;7.132;2024-02-26T13:38:23;4.27;;;3.87;;
4106;SDS011;21906;50.812;7.132;2024-02-26T13:40:50;4.27;;;3.70;;
4106;SDS011;21906;50.812;7.132;2024-02-26T13:43:16;4.00;;;3.63;;
4106;SDS011;21906;50.812;7.132;2024-02-26T13:45:43;3.80;;;3.50;;
4106;SDS011;21906;50.812;7.132;2024-02-26T13:48:10;3.93;;;3.63;;
4106;SDS011;21906;50.812;7.132;2024-02-26T13:50:36;4.40;;;3.90;;
4106;SDS011;21906;50.812;7.132;2024-02-26T13:53:03;3.90;;;3.60;;
4106;SDS011;21906;50.812;7.132;2024-02-26T13:55:29;4.23;;;3.93;;
4106;SDS011;21906;50.812;7.132;2024-02-26T13:57:57;4.80;;;4.40;;
4106;SDS011;21906;50.812;7.132;2024-02-26T14:00:23;4.87;;;4.47;;
4106;SDS011;21906;50.812;7.132;2024-02-26T14:02:50;5.57;;;4.40;;
4106;SDS011;21906;50.812;7.132;2024-02-26T14:05:16;4.83;;;4.37;;
4106;SDS011;21906;50.812;7.132;2024-02-26T14:07:42;4.90;;;4.40;;
4106;SDS011;21906;50.812;7.132;2024-02-26T14:10:11;5.13;;;4.17;;
4106;SDS011;21906;50.812;7.132;2024-02-26T14:12:38;4.50;;;4.10;;
4106;SDS011;21906;50.812;7.132;2024-02-26T14:15:06;5.10;;;4.70;;
4106;SDS011;21906;50.812;7.132;2024-02-26T14:17:32;4.43;;;4.10;;
4106;SDS011;21906;50.812;7.132;2024-02-26T14:19:58;4.90;;;4.30;;
4106;SDS011;21906;50.812;7.132;2024-02-26T14:22:24;6.17;;;4.63;;
4106;SDS011;21906;50.812;7.132;2024-02-26T14:24:51;4.60;;;4.30;;
4106;SDS011;21906;50.812;7.132;2024-02-26T14:27:17;5.37;;;4.70;;
4106;SDS011;21906;50.812;7.132;2024-02-26T14:29:45;5.10;;;4.70;;
4106;SDS011;21906;50.812;7.132;2024-02-26T14:32:11;7.30;;;4.93;;
4106;SDS011;21906;50.812;7.132;2024-02-26T14:34:38;5.63;;;4.70;;
4106;SDS011;21906;50.812;7.132;2024-02-26T14:37:03;5.80;;;5.20;;
4106;SDS011;21906;50.812;7.132;2024-02-26T14:39:30;5.23;;;4.83;;
4106;SDS011;21906;50.812;7.132;2024-02-26T14:41:57;5.87;;;5.27;;
4106;SDS011;21906;50.812;7.132;2024-02-26T14:44:24;6.33;;;5.73;;
4106;SDS011;21906;50.812;7.132;2024-02-26T14:46:52;5.37;;;4.97;;
4106;SDS011;21906;50.812;7.132;2024-02-26T14:49:18;5.90;;;4.73;;
4106;SDS011;21906;50.812;7.132;2024-02-26T14:51:44;5.43;;;4.93;;
4106;SDS011;21906;50.812;7.132;2024-02-26T14:54:13;4.90;;;4.50;;
4106;SDS011;21906;50.812;7.132;2024-02-26T14:56:39;5.77;;;5.27;;
4106;SDS011;21906;50.812;7.132;2024-02-26T14:59:05;5.97;;;5.13;;
4106;SDS011;21906;50.812;7.132;2024-02-26T15:01:32;7.50;;;5.10;;
4106;SDS011;21906;50.812;7.132;2024-02-26T15:03:58;6.60;;;6.00;;
4106;SDS011;21906;50.812;7.132;2024-02-26T15:06:24;6.77;;;5.80;;
4106;SDS011;21906;50.812;7.132;2024-02-26T15:08:51;7.20;;;5.97;;
4106;SDS011;21906;50.812;7.132;2024-02-26T15:11:17;6.37;;;5.77;;
4106;SDS011;21906;50.812;7.132;2024-02-26T15:13:43;6.77;;;5.80;;